createdAt,value
2023-04-15T00:04:00.819Z,26.50
2023-04-15T00:19:00.784Z,26.80
2023-04-15T00:34:00.421Z,27.80
2023-04-15T00:49:00.479Z,30.40
2023-04-15T01:04:00.313Z,30.30
2023-04-15T01:19:00.197Z,30.50
2023-04-15T01:33:59.773Z,31.50
2023-04-15T01:48:59.933Z,31.10
2023-04-15T02:03:59.523Z,31.20
2023-04-15T02:18:59.374Z,30.30
2023-04-15T02:33:59.090Z,30.60
2023-04-15T02:48:59.120Z,29.40
2023-04-15T03:03:58.819Z,27.40
2023-04-15T03:18:58.762Z,27.10
2023-04-15T03:33:58.431Z,27.90
2023-04-15T03:48:58.372Z,26.60
2023-04-15T04:03:58.191Z,26.30
2023-04-15T04:18:57.950Z,26.00
2023-04-15T04:33:57.794Z,24.50
2023-04-15T04:48:57.609Z,23.40
2023-04-15T05:03:57.698Z,24.20
2023-04-15T05:18:57.283Z,22.70
2023-04-15T05:33:57.122Z,21.60
2023-04-15T05:48:56.946Z,20.20
2023-04-15T06:03:56.995Z,18.00
2023-04-15T06:18:56.623Z,17.90
2023-04-15T06:33:56.467Z,16.10
2023-04-15T06:48:56.308Z,14.00
2023-04-15T07:03:56.272Z,13.00
2023-04-15T07:18:56.010Z,11.60
2023-04-15T07:33:56.838Z,12.70
2023-04-15T07:48:55.714Z,12.70
2023-04-15T08:03:55.823Z,13.20
2023-04-15T08:18:55.461Z,13.90
2023-04-15T08:33:55.533Z,15.00
2023-04-15T08:48:55.212Z,15.40
2023-04-15T09:03:55.098Z,15.60
2023-04-15T09:18:54.894Z,16.20
2023-04-15T09:33:54.622Z,14.70
2023-04-15T09:48:54.385Z,15.80
2023-04-15T10:03:54.293Z,14.90
2023-04-15T10:18:54.049Z,14.30
2023-04-15T10:33:53.926Z,16.00
2023-04-15T10:48:54.617Z,15.30
2023-04-15T11:03:53.771Z,14.60
2023-04-15T11:18:53.399Z,13.50
2023-04-15T11:33:53.260Z,13.40
2023-04-15T11:48:53.154Z,12.90
2023-04-15T12:03:53.032Z,13.50
2023-04-15T12:18:52.857Z,12.20
2023-04-15T12:33:52.660Z,12.90
2023-04-15T12:48:52.447Z,12.50
2023-04-15T13:03:52.457Z,10.20
2023-04-15T13:18:52.278Z,9.40
2023-04-15T13:33:51.956Z,7.00
2023-04-15T13:48:51.935Z,7.20
2023-04-15T14:02:00.301Z,6.50
2023-04-15T14:17:01.067Z,7.20
2023-04-15T14:32:11.358Z,7.60
2023-04-15T14:47:00.734Z,7.90
2023-04-15T15:02:00.683Z,7.70
2023-04-15T15:17:00.428Z,11.00
2023-04-15T15:32:00.350Z,8.10
2023-04-15T15:47:00.201Z,7.50
2023-04-15T16:01:59.971Z,7.20
2023-04-15T16:16:59.765Z,5.60
2023-04-15T16:31:59.656Z,5.10
2023-04-15T16:46:59.451Z,5.50
2023-04-15T17:01:59.498Z,5.90
2023-04-15T17:16:59.203Z,6.00
2023-04-15T17:31:58.980Z,7.00
2023-04-15T17:46:58.955Z,11.70
2023-04-15T18:01:58.808Z,8.80
2023-04-15T18:16:58.506Z,8.00
2023-04-15T18:31:58.479Z,9.40
2023-04-15T18:46:58.283Z,8.70
2023-04-15T19:01:58.093Z,8.10
2023-04-15T19:16:57.937Z,6.90
2023-04-15T19:31:57.788Z,7.80
2023-04-15T19:46:57.736Z,9.30
2023-04-15T20:01:57.491Z,13.70
2023-04-15T20:16:57.268Z,15.10
2023-04-15T20:31:57.178Z,21.60
2023-04-15T20:46:56.990Z,15.90
2023-04-15T21:01:57.389Z,16.30
2023-04-15T21:16:56.623Z,16.30
2023-04-15T21:31:56.525Z,18.00
2023-04-15T21:46:56.502Z,17.80
2023-04-15T22:01:57.331Z,18.80
2023-04-15T22:16:56.032Z,19.30
2023-04-15T22:31:55.808Z,18.60
2023-04-15T22:46:55.678Z,18.70
2023-04-15T23:01:55.586Z,17.40
2023-04-15T23:16:55.377Z,19.20
2023-04-15T23:31:55.217Z,19.30
2023-04-15T23:46:55.112Z,20.10
